Time,TemperatureF,DewpointF,PressureIn,WindDirection,WindDirectionDegrees,WindSpeedMPH,WindSpeedGustMPH,Humidity,HourlyPrecipIn,Conditions,Clouds,dailyrainin,SoftwareType,DateUTC
2013-05-27 00:23:00,52.0,-99.9,-100.00,WNW,296,-999.0,-999.0,-999,-99.99,,,-99.99,,2013-05-27 04:23:00,
2013-05-27 00:33:00,52.0,-99.9,-100.00,WNW,296,-999.0,-999.0,-999,-99.99,,,-99.99,,2013-05-27 04:33:00,
2013-05-27 00:43:00,52.0,-99.9,-100.00,WNW,296,-999.0,-999.0,-999,-99.99,,,-99.99,,2013-05-27 04:43:00,
2013-05-27 00:52:00,50.0,-99.9,-100.00,WNW,296,-999.0,-999.0,-999,-99.99,,,-99.99,,2013-05-27 04:52:00,
2013-05-27 01:32:00,50.0,-99.9,-100.00,WNW,296,-999.0,-999.0,-999,-99.99,,,-99.99,,2013-05-27 05:32:00,
2013-05-27 01:42:00,50.0,-99.9,-100.00,WNW,296,-999.0,-999.0,-999,-99.99,,,-99.99,,2013-05-27 05:42:00,
2013-05-27 01:52:00,49.0,-99.9,-100.00,WNW,296,-999.0,-999.0,-999,-99.99,,,-99.99,,2013-05-27 05:52:00,
2013-05-27 02:22:00,49.0,-99.9,-100.00,WNW,296,-999.0,-999.0,-999,-99.99,,,-99.99,,2013-05-27 06:22:00,
2013-05-27 02:32:00,49.0,-99.9,-100.00,WNW,296,-999.0,-999.0,-999,-99.99,,,-99.99,,2013-05-27 06:32:00,
2013-05-27 02:42:00,49.0,-99.9,-100.00,WNW,296,-999.0,-999.0,-999,-99.99,,,-99.99,,2013-05-27 06:42:00,
2013-05-27 03:22:00,47.0,-99.9,-100.00,WNW,296,-999.0,-999.0,-999,-99.99,,,-99.99,,2013-05-27 07:22:00,
2013-05-27 03:32:00,47.0,-99.9,-100.00,WNW,296,-999.0,-999.0,-999,-99.99,,,-99.99,,2013-05-27 07:32:00,
2013-05-27 03:42:00,47.0,-99.9,-100.00,WNW,296,-999.0,-999.0,-999,-99.99,,,-99.99,,2013-05-27 07:42:00,
2013-05-27 03:52:00,46.0,-99.9,-100.00,WNW,296,-999.0,-999.0,-999,-99.99,,,-99.99,,2013-05-27 07:52:00,
2013-05-27 04:33:00,46.0,-99.9,-100.00,WNW,296,-999.0,-999.0,-999,-99.99,,,-99.99,,2013-05-27 08:33:00,
2013-05-27 04:42:00,46.0,-99.9,-100.00,WNW,296,-999.0,-999.0,-999,-99.99,,,-99.99,,2013-05-27 08:42:00,
2013-05-27 04:52:00,45.0,-99.9,-100.00,WNW,296,-999.0,-999.0,-999,-99.99,,,-99.99,,2013-05-27 08:52:00,
2013-05-27 05:22:00,45.0,-99.9,-100.00,WNW,296,-999.0,-999.0,-999,-99.99,,,-99.99,,2013-05-27 09:22:00,
2013-05-27 05:33:00,45.0,-99.9,-100.00,WNW,296,-999.0,-999.0,-999,-99.99,,,-99.99,,2013-05-27 09:33:00,
2013-05-27 05:43:00,45.0,-99.9,-100.00,WNW,296,-999.0,-999.0,-999,-99.99,,,-99.99,,2013-05-27 09:43:00,
2013-05-27 05:52:00,44.0,-99.9,-100.00,WNW,296,-999.0,-999.0,-999,-99.99,,,-99.99,,2013-05-27 09:52:00,
2013-05-27 06:23:00,44.0,-99.9,-100.00,WNW,296,-999.0,-999.0,-999,-99.99,,,-99.99,,2013-05-27 10:23:00,
2013-05-27 06:32:00,44.0,-99.9,-100.00,WNW,296,-999.0,-999.0,-999,-99.99,,,-99.99,,2013-05-27 10:32:00,
2013-05-27 06:42:00,44.0,-99.9,-100.00,WNW,296,-999.0,-999.0,-999,-99.99,,,-99.99,,2013-05-27 10:42:00,
2013-05-27 06:52:00,53.0,-99.9,-100.00,WNW,296,-999.0,-999.0,-999,-99.99,,,-99.99,,2013-05-27 10:52:00,
2013-05-27 07:22:00,53.0,-99.9,-100.00,WNW,296,-999.0,-999.0,-999,-99.99,,,-99.99,,2013-05-27 11:22:00,
2013-05-27 07:32:00,53.0,-99.9,-100.00,WNW,296,-999.0,-999.0,-999,-99.99,,,-99.99,,2013-05-27 11:32:00,
2013-05-27 07:42:00,53.0,-99.9,-100.00,WNW,296,-999.0,-999.0,-999,-99.99,,,-99.99,,2013-05-27 11:42:00,
2013-05-27 07:52:00,62.0,-99.9,-100.00,WNW,296,-999.0,-999.0,-999,-99.99,,,-99.99,,2013-05-27 11:52:00,
2013-05-27 08:32:00,62.0,-99.9,-100.00,WNW,296,-999.0,-999.0,-999,-99.99,,,-99.99,,2013-05-27 12:32:00,
2013-05-27 08:42:00,62.0,-99.9,-100.00,WNW,296,-999.0,-999.0,-999,-99.99,,,-99.99,,2013-05-27 12:42:00,
2013-05-27 08:52:00,65.0,-99.9,-100.00,West,272,-999.0,-999.0,-999,-99.99,,,-99.99,,2013-05-27 12:52:00,
2013-05-27 09:22:00,65.0,-99.9,-100.00,West,272,-999.0,-999.0,-999,-99.99,,,-99.99,,2013-05-27 13:22:00,
2013-05-27 09:32:00,65.0,-99.9,-100.00,West,272,-999.0,-999.0,-999,-99.99,,,-99.99,,2013-05-27 13:32:00,
2013-05-27 09:42:00,65.0,-99.9,-100.00,West,272,-999.0,-999.0,-999,-99.99,,,-99.99,,2013-05-27 13:42:00,
2013-05-27 10:32:00,68.0,-99.9,-100.00,SW,218,-999.0,8.0,-999,-99.99,,,-99.99,,2013-05-27 14:32:00,
2013-05-27 10:42:00,68.0,-99.9,-100.00,SW,218,-999.0,8.0,-999,-99.99,,,-99.99,,2013-05-27 14:42:00,
2013-05-27 10:52:00,68.0,-99.9,-100.00,SW,218,-999.0,8.0,-999,-99.99,,,-99.99,,2013-05-27 14:52:00,
2013-05-27 11:33:00,67.0,-99.9,-100.00,WSW,256,4.0,5.0,-999,-99.99,,,-99.99,,2013-05-27 15:33:00,
2013-05-27 11:43:00,67.0,-99.9,-100.00,WSW,256,4.0,5.0,-999,-99.99,,,-99.99,,2013-05-27 15:43:00,
2013-05-27 11:52:00,63.0,-99.9,-100.00,SSE,149,7.0,11.0,-999,-99.99,,,-99.99,,2013-05-27 15:52:00,
2013-05-27 12:23:00,63.0,-99.9,-100.00,SSE,149,7.0,11.0,-999,-99.99,,,-99.99,,2013-05-27 16:23:00,
2013-05-27 12:33:00,63.0,-99.9,-100.00,SSE,149,7.0,11.0,-999,-99.99,,,-99.99,,2013-05-27 16:33:00,
2013-05-27 12:42:00,63.0,-99.9,-100.00,SSE,149,7.0,11.0,-999,-99.99,,,-99.99,,2013-05-27 16:42:00,
2013-05-27 12:52:00,64.0,-99.9,-100.00,South,189,9.0,16.0,-999,-99.99,,,-99.99,,2013-05-27 16:52:00,
2013-05-27 13:32:00,64.0,-99.9,-100.00,South,189,9.0,16.0,-999,-99.99,,,-99.99,,2013-05-27 17:32:00,
2013-05-27 13:43:00,64.0,-99.9,-100.00,South,189,9.0,16.0,-999,-99.99,,,-99.99,,2013-05-27 17:43:00,
2013-05-27 13:52:00,64.0,-99.9,-100.00,WSW,242,8.0,11.0,-999,-99.99,,,-99.99,,2013-05-27 17:52:00,
2013-05-27 14:32:00,64.0,-99.9,-100.00,WSW,242,8.0,11.0,-999,-99.99,,,-99.99,,2013-05-27 18:32:00,
2013-05-27 14:42:00,64.0,-99.9,-100.00,WSW,242,8.0,11.0,-999,-99.99,,,-99.99,,2013-05-27 18:42:00,
2013-05-27 14:52:00,64.0,-99.9,-100.00,SSE,157,5.0,18.0,-999,-99.99,,,-99.99,,2013-05-27 18:52:00,
2013-05-27 15:32:00,64.0,-99.9,-100.00,SSE,157,5.0,18.0,-999,-99.99,,,-99.99,,2013-05-27 19:32:00,
2013-05-27 15:42:00,64.0,-99.9,-100.00,SSE,157,5.0,18.0,-999,-99.99,,,-99.99,,2013-05-27 19:42:00,
2013-05-27 15:52:00,63.0,-99.9,-100.00,SW,232,9.0,18.0,-999,-99.99,,,-99.99,,2013-05-27 19:52:00,
2013-05-27 16:22:00,63.0,-99.9,-100.00,SW,232,9.0,18.0,-999,-99.99,,,-99.99,,2013-05-27 20:22:00,
2013-05-27 16:32:00,63.0,-99.9,-100.00,SW,232,9.0,18.0,-999,-99.99,,,-99.99,,2013-05-27 20:32:00,
2013-05-27 16:42:00,63.0,-99.9,-100.00,SW,232,9.0,18.0,-999,-99.99,,,-99.99,,2013-05-27 20:42:00,
2013-05-27 16:52:00,63.0,-99.9,-100.00,SW,230,8.0,12.0,-999,-99.99,,,-99.99,,2013-05-27 20:52:00,
2013-05-27 17:22:00,63.0,-99.9,-100.00,SW,230,8.0,12.0,-999,-99.99,,,-99.99,,2013-05-27 21:22:00,
2013-05-27 17:33:00,63.0,-99.9,-100.00,SW,230,8.0,12.0,-999,-99.99,,,-99.99,,2013-05-27 21:33:00,
2013-05-27 17:43:00,63.0,-99.9,-100.00,SW,230,8.0,12.0,-999,-99.99,,,-99.99,,2013-05-27 21:43:00,
2013-05-27 17:52:00,68.0,-99.9,-100.00,NW,313,-999.0,-999.0,-999,-99.99,,,-99.99,,2013-05-27 21:52:00,
2013-05-27 18:23:00,68.0,-99.9,-100.00,NW,313,-999.0,-999.0,-999,-99.99,,,-99.99,,2013-05-27 22:23:00,
2013-05-27 18:33:00,68.0,-99.9,-100.00,NW,313,-999.0,-999.0,-999,-99.99,,,-99.99,,2013-05-27 22:33:00,
2013-05-27 18:42:00,68.0,-99.9,-100.00,NW,313,-999.0,-999.0,-999,-99.99,,,-99.99,,2013-05-27 22:42:00,
2013-05-27 18:52:00,71.0,-99.9,-100.00,WSW,242,3.0,10.0,-999,-99.99,,,-99.99,,2013-05-27 22:52:00,
2013-05-27 19:22:00,71.0,-99.9,-100.00,WSW,242,3.0,10.0,-999,-99.99,,,-99.99,,2013-05-27 23:22:00,
2013-05-27 19:32:00,71.0,-99.9,-100.00,WSW,242,3.0,10.0,-999,-99.99,,,-99.99,,2013-05-27 23:32:00,
2013-05-27 19:42:00,71.0,-99.9,-100.00,WSW,242,3.0,10.0,-999,-99.99,,,-99.99,,2013-05-27 23:42:00,
2013-05-27 19:52:00,69.0,-99.9,-100.00,West,266,-999.0,4.0,-999,-99.99,,,-99.99,,2013-05-27 23:52:00,
2013-05-27 20:22:00,69.0,-99.9,-100.00,West,266,-999.0,4.0,-999,-99.99,,,-99.99,,2013-05-28 00:22:00,
2013-05-27 20:32:00,69.0,-99.9,-100.00,West,266,-999.0,4.0,-999,-99.99,,,-99.99,,2013-05-28 00:32:00,
2013-05-27 20:42:00,69.0,-99.9,-100.00,West,266,-999.0,4.0,-999,-99.99,,,-99.99,,2013-05-28 00:42:00,
2013-05-27 20:52:00,65.0,-99.9,-100.00,SW,233,-999.0,5.0,-999,-99.99,,,-99.99,,2013-05-28 00:52:00,
2013-05-27 21:22:00,65.0,-99.9,-100.00,SW,233,-999.0,5.0,-999,-99.99,,,-99.99,,2013-05-28 01:22:00,
2013-05-27 21:32:00,65.0,-99.9,-100.00,SW,233,-999.0,5.0,-999,-99.99,,,-99.99,,2013-05-28 01:32:00,
2013-05-27 21:42:00,65.0,-99.9,-100.00,SW,233,-999.0,5.0,-999,-99.99,,,-99.99,,2013-05-28 01:42:00,
2013-05-27 21:52:00,63.0,-99.9,-100.00,SW,233,-999.0,-999.0,-999,-99.99,,,-99.99,,2013-05-28 01:52:00,
2013-05-27 22:22:00,63.0,-99.9,-100.00,SW,233,-999.0,-999.0,-999,-99.99,,,-99.99,,2013-05-28 02:22:00,
2013-05-27 22:32:00,63.0,-99.9,-100.00,SW,233,-999.0,-999.0,-999,-99.99,,,-99.99,,2013-05-28 02:32:00,
2013-05-27 22:42:00,63.0,-99.9,-100.00,SW,233,-999.0,-999.0,-999,-99.99,,,-99.99,,2013-05-28 02:42:00,
2013-05-27 22:52:00,62.0,-99.9,-100.00,SSW,202,-999.0,6.0,-999,-99.99,,,-99.99,,2013-05-28 02:52:00,
2013-05-27 23:33:00,62.0,-99.9,-100.00,SSW,202,-999.0,6.0,-999,-99.99,,,-99.99,,2013-05-28 03:33:00,
2013-05-27 23:43:00,62.0,-99.9,-100.00,SSW,202,-999.0,6.0,-999,-99.99,,,-99.99,,2013-05-28 03:43:00,
2013-05-27 23:52:00,60.0,-99.9,-100.00,WNW,285,-999.0,7.0,-999,-99.99,,,-99.99,,2013-05-28 03:52:00,